createdAt,value
2018-07-23T00:00:55.972Z,21.02
2018-07-23T00:03:24.182Z,21.08
2018-07-23T00:05:52.221Z,21.12
2018-07-23T00:08:20.242Z,21.21
2018-07-23T00:10:48.343Z,21.32
2018-07-23T00:13:16.385Z,21.34
2018-07-23T00:15:44.377Z,21.30
2018-07-23T00:18:12.470Z,21.10
2018-07-23T00:20:40.576Z,20.78
2018-07-23T00:23:08.840Z,20.60
2018-07-23T00:25:36.903Z,20.48
2018-07-23T00:28:04.920Z,20.47
2018-07-23T00:30:32.995Z,20.22
2018-07-23T00:33:01.099Z,20.01
2018-07-23T00:35:29.155Z,20.08
2018-07-23T00:37:57.154Z,19.97
2018-07-23T00:40:25.163Z,19.88
2018-07-23T00:42:53.269Z,19.87
2018-07-23T00:45:21.351Z,19.97
2018-07-23T00:47:49.450Z,20.11
2018-07-23T00:50:17.517Z,20.24
2018-07-23T00:52:45.438Z,20.09
2018-07-23T00:55:13.525Z,20.04
2018-07-23T00:57:41.624Z,20.09
2018-07-23T01:00:09.677Z,19.96
2018-07-23T01:02:37.691Z,19.94
2018-07-23T01:05:05.791Z,20.10
2018-07-23T01:07:33.889Z,20.16
2018-07-23T01:10:01.931Z,20.21
2018-07-23T01:12:34.029Z,20.34
2018-07-23T01:15:02.431Z,20.21
2018-07-23T01:17:30.465Z,20.24
2018-07-23T01:19:59.397Z,20.26
2018-07-23T01:22:28.118Z,20.25
2018-07-23T01:24:57.135Z,20.25
2018-07-23T01:27:25.320Z,20.24
2018-07-23T01:29:53.356Z,20.22
2018-07-23T01:32:21.492Z,20.11
2018-07-23T01:34:49.911Z,20.08
2018-07-23T01:37:18.459Z,20.01
2018-07-23T01:39:46.632Z,19.87
2018-07-23T01:42:14.688Z,19.92
2018-07-23T01:44:42.834Z,19.80
2018-07-23T01:47:11.166Z,19.77
2018-07-23T01:49:39.337Z,19.63
2018-07-23T01:52:07.353Z,19.65
2018-07-23T01:54:35.768Z,19.51
2018-07-23T01:57:03.910Z,19.42
2018-07-23T01:59:32.144Z,19.55
2018-07-23T02:02:00.112Z,19.59
2018-07-23T02:04:28.123Z,19.58
2018-07-23T02:06:56.080Z,19.62
2018-07-23T02:09:24.103Z,19.53
2018-07-23T02:11:52.149Z,19.59
2018-07-23T02:14:20.277Z,19.76
2018-07-23T02:16:48.424Z,19.78
2018-07-23T02:19:16.533Z,19.70
2018-07-23T02:21:44.553Z,19.56
2018-07-23T02:24:12.543Z,19.53
2018-07-23T02:26:40.610Z,19.45
2018-07-23T02:29:08.835Z,19.39
2018-07-23T02:31:36.965Z,19.47
2018-07-23T02:34:04.875Z,19.36
2018-07-23T02:36:32.925Z,19.05
2018-07-23T02:39:00.973Z,19.03
2018-07-23T02:41:29.048Z,19.08
2018-07-23T02:43:57.042Z,19.08
2018-07-23T02:46:25.212Z,19.00
2018-07-23T02:48:53.179Z,18.96
2018-07-23T02:51:21.340Z,19.03
2018-07-23T02:53:49.453Z,19.04
2018-07-23T02:56:17.375Z,18.87
2018-07-23T02:58:45.465Z,18.83
2018-07-23T03:01:13.475Z,18.83
2018-07-23T03:03:41.557Z,18.85
2018-07-23T03:06:09.613Z,18.87
2018-07-23T03:08:37.620Z,18.79
2018-07-23T03:11:05.676Z,18.83
2018-07-23T03:13:33.918Z,18.95
2018-07-23T03:16:01.927Z,18.96
2018-07-23T03:18:29.951Z,18.95
2018-07-23T03:20:58.008Z,18.91
2018-07-23T03:23:26.066Z,18.91
2018-07-23T03:25:54.211Z,19.02
2018-07-23T03:28:22.270Z,19.06
2018-07-23T03:30:50.234Z,18.98
2018-07-23T03:33:18.342Z,19.01
2018-07-23T03:35:46.374Z,19.03
2018-07-23T03:38:14.776Z,19.02
2018-07-23T03:40:42.798Z,19.11
2018-07-23T03:43:11.236Z,19.11
2018-07-23T03:45:39.222Z,19.21
2018-07-23T03:48:07.331Z,19.20
2018-07-23T03:50:35.614Z,19.17
2018-07-23T03:53:03.751Z,19.23
2018-07-23T03:55:31.734Z,19.21
2018-07-23T03:57:59.835Z,19.14
2018-07-23T04:00:27.791Z,19.15
2018-07-23T04:02:55.818Z,19.15
2018-07-23T04:05:23.853Z,19.27
2018-07-23T04:07:51.930Z,19.33
2018-07-23T04:10:19.886Z,19.30
2018-07-23T04:12:47.832Z,19.38
2018-07-23T04:15:15.883Z,19.47
2018-07-23T04:17:50.832Z,19.49
2018-07-23T04:20:18.904Z,19.53
2018-07-23T04:22:46.949Z,19.60
2018-07-23T04:25:15.020Z,19.63
2018-07-23T04:27:43.007Z,19.62
2018-07-23T04:30:11.112Z,19.66
2018-07-23T04:32:39.232Z,19.68
2018-07-23T04:35:07.325Z,19.77
2018-07-23T04:37:35.383Z,19.87
2018-07-23T04:40:03.617Z,19.97
2018-07-23T04:42:32.151Z,20.15
2018-07-23T04:45:00.198Z,20.38
2018-07-23T04:47:28.263Z,20.55
2018-07-23T04:49:56.227Z,20.65
2018-07-23T04:52:24.330Z,20.62
2018-07-23T04:54:52.415Z,20.59
2018-07-23T04:57:20.547Z,20.64
2018-07-23T04:59:48.569Z,20.79
2018-07-23T05:02:16.612Z,21.04
2018-07-23T05:04:44.640Z,21.17
2018-07-23T05:07:12.639Z,21.30
2018-07-23T05:09:40.591Z,21.41
2018-07-23T05:12:08.569Z,21.56
2018-07-23T05:14:36.560Z,21.68
2018-07-23T05:17:04.672Z,21.80
2018-07-23T05:19:32.720Z,21.99
2018-07-23T05:22:00.791Z,22.44
2018-07-23T05:24:28.866Z,22.61
2018-07-23T05:26:56.973Z,22.55
2018-07-23T05:29:25.812Z,22.49
2018-07-23T05:31:53.917Z,22.47
2018-07-23T05:34:21.995Z,22.52
2018-07-23T05:36:50.248Z,22.56
2018-07-23T05:39:18.459Z,22.53
2018-07-23T05:41:46.487Z,22.73
2018-07-23T05:44:14.571Z,22.80
2018-07-23T05:46:42.739Z,22.79
2018-07-23T05:49:10.777Z,22.96
2018-07-23T05:51:38.759Z,23.09
2018-07-23T05:54:07.312Z,23.24
2018-07-23T05:56:35.388Z,23.38
2018-07-23T05:59:03.568Z,23.52
2018-07-23T06:01:31.662Z,23.54
2018-07-23T06:04:00.187Z,23.64
2018-07-23T06:06:28.297Z,23.64
2018-07-23T06:08:56.366Z,23.69
2018-07-23T06:11:24.491Z,23.77
2018-07-23T06:13:52.623Z,23.77
2018-07-23T06:16:20.970Z,23.89
2018-07-23T06:18:49.098Z,23.89
2018-07-23T06:21:17.245Z,23.98
2018-07-23T06:23:45.288Z,24.11
2018-07-23T06:26:13.344Z,24.19
2018-07-23T06:28:41.439Z,24.27
2018-07-23T06:31:09.579Z,24.41
2018-07-23T06:33:37.851Z,24.38
2018-07-23T06:36:05.925Z,24.18
2018-07-23T06:38:34.145Z,24.17
2018-07-23T06:41:02.231Z,24.11
2018-07-23T06:43:30.284Z,24.17
2018-07-23T06:45:58.512Z,24.25
2018-07-23T06:48:26.744Z,24.30
2018-07-23T06:50:55.076Z,24.26
2018-07-23T06:53:23.116Z,24.15
2018-07-23T06:55:51.271Z,24.22
2018-07-23T06:58:19.402Z,24.27
2018-07-23T07:00:47.539Z,24.25
2018-07-23T07:03:15.673Z,24.33
2018-07-23T07:05:43.742Z,24.44
2018-07-23T07:08:11.902Z,24.42
2018-07-23T07:10:39.974Z,24.44
2018-07-23T07:13:08.044Z,24.53
2018-07-23T07:15:36.165Z,24.59
2018-07-23T07:18:04.205Z,24.80
2018-07-23T07:20:32.771Z,24.92
2018-07-23T07:23:01.115Z,25.04
2018-07-23T07:25:29.186Z,25.16
2018-07-23T07:27:57.420Z,25.08
2018-07-23T07:30:25.523Z,25.04
2018-07-23T07:32:53.623Z,25.06
2018-07-23T07:35:21.741Z,25.19
2018-07-23T07:37:49.843Z,25.38
2018-07-23T07:40:17.854Z,25.43
2018-07-23T07:42:46.007Z,25.49
2018-07-23T07:45:13.996Z,25.56
2018-07-23T07:47:42.136Z,25.75
2018-07-23T07:50:10.229Z,25.80
2018-07-23T07:52:38.290Z,25.85
2018-07-23T07:55:06.474Z,25.90
2018-07-23T07:57:34.557Z,25.99
2018-07-23T08:00:02.660Z,26.08
2018-07-23T08:02:30.635Z,26.20
2018-07-23T08:04:58.595Z,26.10
2018-07-23T08:07:26.680Z,26.21
2018-07-23T08:09:54.837Z,26.30
2018-07-23T08:12:23.041Z,26.41
2018-07-23T08:14:51.039Z,26.40
2018-07-23T08:17:19.044Z,26.32
2018-07-23T08:19:47.524Z,26.40
2018-07-23T08:22:15.580Z,26.52
2018-07-23T08:24:43.864Z,26.48
2018-07-23T08:27:12.072Z,26.65
2018-07-23T08:29:40.246Z,26.71
2018-07-23T08:32:08.310Z,26.94
2018-07-23T08:34:36.373Z,26.93
2018-07-23T08:37:04.631Z,26.92
2018-07-23T08:39:32.653Z,27.01
2018-07-23T08:42:00.858Z,27.05
2018-07-23T08:44:28.852Z,26.88
2018-07-23T08:46:57.058Z,26.80
2018-07-23T08:49:25.299Z,26.82
2018-07-23T08:51:53.683Z,26.80
2018-07-23T08:54:21.822Z,26.88
2018-07-23T08:56:50.142Z,27.05
2018-07-23T08:59:19.526Z,27.24
2018-07-23T09:01:47.568Z,27.37
2018-07-23T09:04:15.648Z,27.53
2018-07-23T09:06:43.921Z,27.54
2018-07-23T09:09:11.911Z,27.74
2018-07-23T09:11:40.126Z,27.95
2018-07-23T09:14:08.152Z,28.28
2018-07-23T09:16:36.255Z,28.66
2018-07-23T09:19:04.946Z,29.04
2018-07-23T09:21:33.062Z,29.15
2018-07-23T09:24:01.195Z,29.30
2018-07-23T09:26:29.268Z,29.62
2018-07-23T09:28:57.470Z,29.68
2018-07-23T09:31:25.683Z,29.38
2018-07-23T09:33:53.711Z,29.33
2018-07-23T09:36:21.811Z,29.25
2018-07-23T09:38:49.958Z,28.85
2018-07-23T09:41:18.225Z,28.84
2018-07-23T09:43:46.293Z,28.87
2018-07-23T09:46:14.463Z,28.74
2018-07-23T09:48:42.441Z,28.69
2018-07-23T09:51:10.505Z,28.59
2018-07-23T09:53:38.505Z,28.32
2018-07-23T09:56:06.860Z,28.16
2018-07-23T09:58:35.289Z,28.07
2018-07-23T10:01:08.727Z,28.16
2018-07-23T10:03:37.034Z,28.28
2018-07-23T10:06:05.182Z,28.20
2018-07-23T10:08:34.423Z,28.09
2018-07-23T10:11:02.560Z,28.19
2018-07-23T10:13:30.622Z,28.25
2018-07-23T10:15:58.846Z,28.42
2018-07-23T10:18:26.888Z,28.46
2018-07-23T10:20:55.201Z,28.50
2018-07-23T10:23:23.357Z,28.45
2018-07-23T10:25:51.394Z,28.61
2018-07-23T10:28:19.432Z,28.56
2018-07-23T10:30:47.535Z,28.25
2018-07-23T10:33:15.491Z,27.94
2018-07-23T10:35:43.544Z,28.09
2018-07-23T10:38:11.688Z,28.49
2018-07-23T10:40:39.868Z,28.77
2018-07-23T10:43:19.863Z,28.88
2018-07-23T10:45:47.981Z,28.82
2018-07-23T10:48:15.902Z,29.03
2018-07-23T10:50:43.909Z,29.33
2018-07-23T10:53:12.013Z,29.60
2018-07-23T10:55:40.092Z,29.74
2018-07-23T10:58:08.161Z,29.80
2018-07-23T11:00:36.257Z,29.48
2018-07-23T11:03:04.258Z,29.41
2018-07-23T11:05:32.601Z,29.05
2018-07-23T11:08:00.615Z,28.86
2018-07-23T11:10:28.557Z,28.93
2018-07-23T11:12:56.582Z,28.83
2018-07-23T11:15:25.657Z,29.05
2018-07-23T11:17:54.253Z,29.16
2018-07-23T11:20:22.238Z,29.24
2018-07-23T11:22:50.297Z,29.49
2018-07-23T11:25:39.178Z,29.55
2018-07-23T11:27:46.751Z,29.68
2018-07-23T11:30:14.942Z,29.67
2018-07-23T11:32:43.062Z,29.56
2018-07-23T11:35:11.117Z,29.38
2018-07-23T11:37:39.248Z,29.36
2018-07-23T11:40:07.343Z,29.28
2018-07-23T11:42:35.859Z,29.01
2018-07-23T11:45:04.707Z,28.84
2018-07-23T11:47:32.656Z,28.52
2018-07-23T11:58:32.185Z,27.41
2018-07-23T12:01:00.531Z,27.42
2018-07-23T12:03:28.486Z,27.30
2018-07-23T12:05:56.385Z,27.22
2018-07-23T12:08:24.401Z,27.03
2018-07-23T12:10:52.646Z,27.06
2018-07-23T12:13:20.649Z,26.89
2018-07-23T12:15:48.697Z,26.91
2018-07-23T12:18:16.816Z,26.97
2018-07-23T12:20:44.830Z,26.86
2018-07-23T12:23:12.849Z,26.76
2018-07-23T12:25:40.907Z,26.63
2018-07-23T12:28:09.083Z,26.31
2018-07-23T12:30:37.231Z,26.06
2018-07-23T12:33:05.412Z,26.00
2018-07-23T12:35:33.582Z,26.11
2018-07-23T12:38:01.595Z,26.24
2018-07-23T12:40:29.630Z,26.43
2018-07-23T12:42:57.716Z,26.60
2018-07-23T12:45:25.752Z,26.60
2018-07-23T12:47:53.880Z,26.83
2018-07-23T12:50:21.843Z,26.87
2018-07-23T12:52:50.072Z,26.77
2018-07-23T12:55:18.175Z,26.55
2018-07-23T12:57:46.275Z,26.47
2018-07-23T13:00:14.286Z,26.71
2018-07-23T13:02:42.322Z,27.05
2018-07-23T13:05:10.117Z,27.10
2018-07-23T13:07:38.147Z,27.30
2018-07-23T13:10:06.173Z,27.47
2018-07-23T13:12:34.245Z,27.31
2018-07-23T13:15:02.337Z,26.93
2018-07-23T13:17:30.287Z,27.01
2018-07-23T13:19:58.947Z,26.98
2018-07-23T13:22:26.955Z,28.07
2018-07-23T13:24:55.374Z,28.71
2018-07-23T13:27:23.331Z,28.96
2018-07-23T13:29:51.426Z,29.17
2018-07-23T13:32:19.481Z,29.17
2018-07-23T13:34:47.492Z,27.90
2018-07-23T13:37:15.625Z,27.33
2018-07-23T13:39:43.636Z,27.22
2018-07-23T13:42:11.775Z,27.85
2018-07-23T13:44:39.987Z,28.31
2018-07-23T13:47:07.976Z,28.29
2018-07-23T13:49:36.027Z,28.23
2018-07-23T13:52:05.953Z,28.33
2018-07-23T13:54:33.967Z,28.48
2018-07-23T13:57:03.091Z,28.49
2018-07-23T13:59:31.181Z,28.49
2018-07-23T14:01:59.194Z,28.76
2018-07-23T14:04:27.313Z,28.80
2018-07-23T14:06:55.460Z,28.65
2018-07-23T14:09:23.728Z,28.52
2018-07-23T14:11:51.822Z,28.42
2018-07-23T14:14:20.070Z,28.14
2018-07-23T14:16:48.092Z,28.30
2018-07-23T14:19:16.116Z,28.24
2018-07-23T14:21:44.316Z,28.31
2018-07-23T14:24:12.399Z,28.14
2018-07-23T14:26:40.428Z,27.59
2018-07-23T14:29:08.578Z,27.25
2018-07-23T14:31:36.694Z,27.06
2018-07-23T14:34:04.892Z,27.18
2018-07-23T14:36:33.004Z,27.48
2018-07-23T14:39:01.260Z,27.65
2018-07-23T14:41:29.267Z,27.53
2018-07-23T14:43:57.860Z,27.31
2018-07-23T14:46:25.961Z,27.13
2018-07-23T14:48:53.957Z,26.98
2018-07-23T14:51:21.997Z,26.90
2018-07-23T14:53:50.317Z,26.79
2018-07-23T14:56:18.483Z,26.73
2018-07-23T14:58:46.587Z,26.70
2018-07-23T15:01:14.740Z,26.70
2018-07-23T15:03:42.923Z,26.68
2018-07-23T15:06:11.197Z,26.63
2018-07-23T15:08:39.466Z,26.61
2018-07-23T15:11:07.543Z,26.54
2018-07-23T15:13:35.643Z,26.52
2018-07-23T15:16:03.804Z,26.47
2018-07-23T15:18:31.892Z,26.38
2018-07-23T15:20:59.973Z,26.30
2018-07-23T15:23:29.142Z,26.34
2018-07-23T15:25:57.315Z,26.27
2018-07-23T15:28:25.435Z,26.16
2018-07-23T15:30:53.414Z,26.18
2018-07-23T15:33:21.663Z,26.08
2018-07-23T15:35:49.788Z,25.99
2018-07-23T15:38:18.319Z,25.90
2018-07-23T15:40:46.526Z,25.86
2018-07-23T15:43:14.574Z,25.84
2018-07-23T15:45:42.980Z,25.87
2018-07-23T15:48:10.931Z,25.88
2018-07-23T15:50:38.927Z,25.82
2018-07-23T15:53:07.139Z,25.85
2018-07-23T15:55:35.355Z,25.90
2018-07-23T15:58:03.434Z,25.91
2018-07-23T16:00:31.530Z,25.84
2018-07-23T16:02:59.973Z,25.89
2018-07-23T16:05:28.208Z,25.88
2018-07-23T16:07:56.289Z,25.80
2018-07-23T16:10:24.518Z,25.87
2018-07-23T16:12:52.626Z,25.67
2018-07-23T16:15:20.660Z,25.52
2018-07-23T16:17:48.644Z,25.52
2018-07-23T16:20:17.897Z,25.50
2018-07-23T16:22:46.031Z,25.28
2018-07-23T16:25:14.107Z,25.27
2018-07-23T16:27:42.406Z,25.21
2018-07-23T16:30:10.754Z,25.07
2018-07-23T16:32:38.976Z,24.96
2018-07-23T16:35:09.261Z,24.99
2018-07-23T16:37:37.530Z,24.98
2018-07-23T16:40:06.305Z,24.97
2018-07-23T16:42:34.581Z,25.00
2018-07-23T16:45:02.805Z,24.93
2018-07-23T16:47:30.816Z,24.83
2018-07-23T16:49:59.190Z,24.79
2018-07-23T16:52:27.245Z,24.71
2018-07-23T16:54:56.426Z,24.62
2018-07-23T16:57:24.457Z,24.61
2018-07-23T16:59:52.516Z,24.54
2018-07-23T17:02:20.637Z,24.51
2018-07-23T17:04:48.764Z,24.52
2018-07-23T17:07:16.872Z,24.52
2018-07-23T17:09:44.922Z,24.48
2018-07-23T17:12:13.054Z,24.44
2018-07-23T17:14:41.154Z,24.43
2018-07-23T17:17:09.321Z,24.46
2018-07-23T17:19:37.563Z,24.38
2018-07-23T17:22:05.671Z,24.34
2018-07-23T17:24:35.246Z,24.31
2018-07-23T17:27:03.628Z,24.28
2018-07-23T17:29:31.766Z,24.26
2018-07-23T17:32:00.056Z,24.28
2018-07-23T17:34:28.464Z,24.29
2018-07-23T17:36:56.437Z,24.21
2018-07-23T17:39:24.615Z,24.18
2018-07-23T17:41:53.167Z,24.23
2018-07-23T17:44:21.490Z,24.11
2018-07-23T17:46:49.426Z,24.11
2018-07-23T17:49:17.589Z,24.07
2018-07-23T17:51:45.525Z,24.16
2018-07-23T17:54:13.553Z,24.15
2018-07-23T17:56:41.638Z,24.19
2018-07-23T17:59:09.815Z,24.16
2018-07-23T18:01:38.129Z,24.22
2018-07-23T18:04:06.348Z,24.28
2018-07-23T18:06:34.416Z,24.30
2018-07-23T18:09:02.589Z,24.20
2018-07-23T18:11:30.744Z,23.98
2018-07-23T18:13:58.760Z,23.66
2018-07-23T18:16:26.791Z,23.47
2018-07-23T18:18:54.827Z,23.33
2018-07-23T18:21:23.915Z,23.28
2018-07-23T18:23:52.073Z,23.24
2018-07-23T18:26:21.218Z,23.29
2018-07-23T18:28:49.291Z,23.29
2018-07-23T18:31:17.418Z,23.30
2018-07-23T18:33:45.658Z,23.34
2018-07-23T18:36:13.959Z,23.34
2018-07-23T18:38:42.091Z,23.39
2018-07-23T18:41:10.299Z,23.43
2018-07-23T18:43:38.443Z,23.50
2018-07-23T18:46:07.854Z,23.52
2018-07-23T18:49:45.737Z,23.47
2018-07-23T18:52:14.443Z,23.38
2018-07-23T18:54:44.038Z,23.32
2018-07-23T18:57:12.553Z,23.25
2018-07-23T18:59:40.599Z,23.24
2018-07-23T19:02:10.030Z,23.24
2018-07-23T19:04:38.146Z,23.25
2018-07-23T19:07:06.954Z,23.30
2018-07-23T19:09:35.055Z,23.44
2018-07-23T19:12:03.361Z,23.52
2018-07-23T19:14:31.589Z,23.52
2018-07-23T19:17:01.212Z,23.36
2018-07-23T19:19:29.611Z,23.14
2018-07-23T19:21:58.612Z,23.02
2018-07-23T19:24:26.836Z,22.97
2018-07-23T19:26:54.854Z,22.93
2018-07-23T19:29:22.985Z,22.88
2018-07-23T19:31:51.116Z,22.87
2018-07-23T19:34:19.199Z,22.81
2018-07-23T19:36:47.384Z,22.77
2018-07-23T19:39:17.590Z,22.82
2018-07-23T19:41:45.782Z,22.82
2018-07-23T19:44:13.988Z,22.76
2018-07-23T19:46:42.767Z,22.82
2018-07-23T19:49:10.787Z,22.79
2018-07-23T19:51:38.906Z,22.83
2018-07-23T19:54:07.837Z,22.77
2018-07-23T19:56:35.857Z,22.60
2018-07-23T19:59:04.036Z,22.53
2018-07-23T20:01:32.303Z,22.36
2018-07-23T20:04:00.557Z,22.40
2018-07-23T20:06:29.122Z,22.40
2018-07-23T20:08:58.298Z,22.40
2018-07-23T20:11:27.179Z,22.43
2018-07-23T20:13:55.315Z,22.49
2018-07-23T20:16:23.351Z,22.64
2018-07-23T20:18:51.511Z,22.70
2018-07-23T20:21:19.483Z,22.67
2018-07-23T20:23:47.538Z,22.61
2018-07-23T20:26:15.660Z,22.59
2018-07-23T20:28:43.684Z,22.53
2018-07-23T20:31:11.673Z,22.46
2018-07-23T20:33:39.685Z,22.58
2018-07-23T20:36:07.825Z,22.59
2018-07-23T20:38:36.386Z,22.60
2018-07-23T20:41:04.424Z,22.61
2018-07-23T20:43:32.874Z,22.55
2018-07-23T20:46:01.169Z,22.60
2018-07-23T20:48:29.245Z,22.65
2018-07-23T20:50:57.440Z,22.65
2018-07-23T20:53:25.637Z,22.58
2018-07-23T20:55:53.789Z,22.60
2018-07-23T20:58:22.102Z,22.55
2018-07-23T21:00:50.212Z,22.60
2018-07-23T21:03:18.421Z,22.58
2018-07-23T21:05:46.422Z,22.62
2018-07-23T21:08:14.357Z,22.67
2018-07-23T21:10:42.416Z,22.64
2018-07-23T21:13:10.653Z,22.51
2018-07-23T21:15:38.730Z,22.41
2018-07-23T21:18:07.294Z,22.07
2018-07-23T21:20:35.310Z,22.07
2018-07-23T21:23:03.304Z,21.93
2018-07-23T21:25:31.392Z,21.79
2018-07-23T21:27:59.324Z,21.78
2018-07-23T21:30:27.726Z,21.74
2018-07-23T21:32:55.817Z,21.65
2018-07-23T21:35:23.828Z,21.62
2018-07-23T21:37:51.829Z,21.63
2018-07-23T21:40:19.823Z,21.61
2018-07-23T21:42:47.819Z,21.59
2018-07-23T21:45:15.893Z,21.58
2018-07-23T21:47:43.866Z,21.63
2018-07-23T21:50:11.781Z,21.73
2018-07-23T21:52:39.865Z,21.70
2018-07-23T21:55:08.061Z,21.73
2018-07-23T21:57:36.015Z,21.75
2018-07-23T22:00:06.806Z,21.76
2018-07-23T22:02:34.806Z,21.89
2018-07-23T22:05:02.843Z,21.91
2018-07-23T22:07:30.862Z,21.85
2018-07-23T22:09:58.986Z,21.79
2018-07-23T22:12:26.947Z,21.78
2018-07-23T22:14:54.907Z,21.69
2018-07-23T22:17:23.147Z,21.68
2018-07-23T22:19:51.319Z,21.61
2018-07-23T22:22:19.319Z,21.57
2018-07-23T22:24:47.327Z,21.58
2018-07-23T22:27:15.514Z,21.63
2018-07-23T22:29:43.507Z,21.64
2018-07-23T22:32:11.662Z,21.70
2018-07-23T22:34:39.649Z,21.71
2018-07-23T22:37:07.686Z,21.73
2018-07-23T22:39:35.722Z,21.68
2018-07-23T22:42:03.909Z,21.70
2018-07-23T22:44:31.846Z,21.73
2018-07-23T22:46:59.789Z,21.82
2018-07-23T22:49:27.862Z,21.77
2018-07-23T22:51:55.943Z,21.83
2018-07-23T22:54:24.023Z,21.84
2018-07-23T22:56:51.947Z,21.83
2018-07-23T22:59:20.009Z,21.78
2018-07-23T23:01:47.961Z,21.77
2018-07-23T23:04:15.862Z,21.78
2018-07-23T23:06:43.869Z,21.75
2018-07-23T23:09:11.974Z,21.71
2018-07-23T23:11:39.938Z,21.61
2018-07-23T23:14:08.047Z,21.55
2018-07-23T23:16:36.192Z,21.46
2018-07-23T23:19:04.375Z,21.39
2018-07-23T23:21:32.453Z,21.33
2018-07-23T23:24:00.391Z,21.40
2018-07-23T23:26:28.391Z,21.39
2018-07-23T23:28:56.505Z,21.36
2018-07-23T23:31:24.492Z,21.34
2018-07-23T23:33:52.663Z,21.32
2018-07-23T23:36:20.705Z,21.32
2018-07-23T23:38:48.669Z,21.19
2018-07-23T23:41:16.734Z,21.12
2018-07-23T23:43:44.732Z,21.11
2018-07-23T23:46:12.751Z,21.11
2018-07-23T23:48:40.754Z,21.04
2018-07-23T23:51:08.919Z,21.05
2018-07-23T23:53:36.945Z,21.00
2018-07-23T23:56:05.140Z,21.05
2018-07-23T23:58:33.233Z,21.06
